createdAt,value
2023-04-02T00:00:19.292Z,7.25
2023-04-02T00:05:33.322Z,9.30
2023-04-02T00:10:36.981Z,4.20
2023-04-02T00:15:42.267Z,7.38
2023-04-02T00:20:51.613Z,8.43
2023-04-02T00:25:54.214Z,7.45
2023-04-02T00:30:59.942Z,9.07
2023-04-02T00:36:08.154Z,6.78
2023-04-02T00:41:16.863Z,7.72
2023-04-02T00:46:30.348Z,9.85
2023-04-02T00:51:39.082Z,9.82
2023-04-02T00:56:48.100Z,14.75
2023-04-02T01:02:18.780Z,8.48
2023-04-02T01:07:37.672Z,7.35
2023-04-02T01:13:33.874Z,5.53
2023-04-02T01:18:54.997Z,5.82
2023-04-02T01:23:58.023Z,13.00
2023-04-02T01:29:14.188Z,12.80
2023-04-02T01:34:20.369Z,9.52
2023-04-02T01:39:44.724Z,6.22
2023-04-02T01:44:53.441Z,3.53
2023-04-02T01:50:03.804Z,4.57
2023-04-02T01:55:10.495Z,5.43
2023-04-02T02:00:19.285Z,5.95
2023-04-02T02:05:26.555Z,8.27
2023-04-02T02:10:37.333Z,7.45
2023-04-02T02:15:40.018Z,11.63
2023-04-02T02:20:43.140Z,9.82
2023-04-02T02:25:47.990Z,7.03
2023-04-02T02:30:57.407Z,7.38
2023-04-02T02:36:02.730Z,8.15
2023-04-02T02:41:31.269Z,6.63
2023-04-02T02:46:36.270Z,6.00
2023-04-02T02:51:52.822Z,9.00
2023-04-02T02:57:13.617Z,12.73
2023-04-02T03:02:17.063Z,14.18
2023-04-02T03:07:25.826Z,18.58
2023-04-02T03:13:02.493Z,19.13
2023-04-02T03:18:18.329Z,17.75
2023-04-02T03:23:29.276Z,26.55
2023-04-02T03:28:37.672Z,19.15
2023-04-02T03:34:08.269Z,22.85
2023-04-02T03:39:34.135Z,20.85
2023-04-02T03:44:46.131Z,20.90
2023-04-02T03:50:12.516Z,16.65
2023-04-02T03:55:24.545Z,12.70
2023-04-02T04:00:39.830Z,7.53
2023-04-02T04:05:54.748Z,8.95
2023-04-02T04:11:02.283Z,13.52
2023-04-02T04:16:15.820Z,9.13
2023-04-02T04:21:31.322Z,4.70
2023-04-02T04:26:55.201Z,6.40
2023-04-02T04:32:32.632Z,5.10
2023-04-02T04:37:45.339Z,6.00
2023-04-02T04:42:53.410Z,10.93
2023-04-02T04:48:21.015Z,4.40
2023-04-02T04:53:28.005Z,8.65
2023-04-02T04:58:36.529Z,6.88
2023-04-02T05:03:57.477Z,10.00
2023-04-02T05:09:13.789Z,7.68
2023-04-02T05:14:25.088Z,12.07
2023-04-02T05:19:38.462Z,10.63
2023-04-02T05:24:49.247Z,12.07
2023-04-02T05:30:01.207Z,14.90
2023-04-02T05:35:07.090Z,12.02
2023-04-02T05:40:19.721Z,14.95
2023-04-02T05:45:32.324Z,8.27
2023-04-02T05:50:43.568Z,5.97
2023-04-02T05:56:02.937Z,10.07
2023-04-02T06:01:17.875Z,9.65
2023-04-02T06:06:42.051Z,7.78
2023-04-02T06:11:57.195Z,7.45
2023-04-02T06:17:00.184Z,7.43
2023-04-02T06:22:37.424Z,3.25
2023-04-02T06:27:44.270Z,5.93
2023-04-02T06:32:48.945Z,6.97
2023-04-02T06:37:57.659Z,6.10
2023-04-02T06:43:14.947Z,5.93
2023-04-02T06:48:42.636Z,6.10
2023-04-02T06:53:48.389Z,8.38
2023-04-02T06:58:54.720Z,12.45
2023-04-02T07:03:58.993Z,11.93
2023-04-02T07:22:38.239Z,17.77
2023-04-02T07:27:41.564Z,11.77
2023-04-02T07:32:44.925Z,12.98
2023-04-02T07:37:47.858Z,3.28
2023-04-02T07:42:50.999Z,9.45
2023-04-02T07:47:54.770Z,8.55
2023-04-02T07:52:57.662Z,4.40
2023-04-02T07:58:00.707Z,9.10
2023-04-02T08:03:05.052Z,4.53
2023-04-02T08:08:08.999Z,3.38
2023-04-02T08:13:12.185Z,8.70
2023-04-02T08:18:15.046Z,9.38
2023-04-02T08:23:18.274Z,4.18
2023-04-02T08:28:22.601Z,6.85
2023-04-02T08:33:25.165Z,4.47
2023-04-02T08:38:28.004Z,5.25
2023-04-02T08:44:01.093Z,5.88
2023-04-02T08:49:12.077Z,6.65
2023-04-02T08:54:14.599Z,5.75
2023-04-02T08:59:32.177Z,0.85
2023-04-02T09:04:35.317Z,3.25
2023-04-02T09:09:38.745Z,3.85
2023-04-02T09:14:59.529Z,2.42
2023-04-02T09:20:22.901Z,1.67
2023-04-02T09:25:28.403Z,2.17
2023-04-02T09:30:52.627Z,2.90
2023-04-02T09:35:58.165Z,2.35
2023-04-02T09:41:07.132Z,0.82
2023-04-02T09:46:26.446Z,2.28
2023-04-02T09:51:34.725Z,2.47
2023-04-02T09:56:39.942Z,4.20
2023-04-02T10:01:59.536Z,1.98
2023-04-02T10:07:03.738Z,3.08
2023-04-02T10:12:14.377Z,6.13
2023-04-02T10:17:24.838Z,4.32
2023-04-02T10:22:28.781Z,2.95
2023-04-02T10:27:34.913Z,4.05
2023-04-02T10:32:47.758Z,3.28
2023-04-02T10:38:02.902Z,3.67
2023-04-02T10:43:47.152Z,7.25
2023-04-02T10:49:17.742Z,1.80
2023-04-02T10:54:30.988Z,3.50
2023-04-02T10:59:37.621Z,3.30
2023-04-02T11:04:46.621Z,2.85
2023-04-02T11:09:53.935Z,4.38
2023-04-02T11:14:56.902Z,2.92
2023-04-02T11:20:57.712Z,4.13
2023-04-02T11:26:38.535Z,8.85
2023-04-02T11:31:43.168Z,6.80
2023-04-02T11:36:52.904Z,15.52
2023-04-02T11:42:05.852Z,6.55
2023-04-02T11:47:30.105Z,8.65
2023-04-02T11:52:52.116Z,5.38
2023-04-02T11:58:29.967Z,7.85
2023-04-02T12:04:06.344Z,6.90
2023-04-02T12:09:25.433Z,7.97
2023-04-02T12:14:51.279Z,7.40
2023-04-02T12:19:57.596Z,3.33
2023-04-02T12:25:06.909Z,6.60
2023-04-02T12:30:21.151Z,6.35
2023-04-02T12:35:29.161Z,3.72
2023-04-02T12:40:32.384Z,6.07
2023-04-02T12:45:35.272Z,7.40
2023-04-02T12:50:41.999Z,6.05
2023-04-02T12:55:50.254Z,2.30
2023-04-02T13:00:53.023Z,4.82
2023-04-02T13:05:57.652Z,2.55
2023-04-02T13:11:05.464Z,4.65
2023-04-02T13:16:29.284Z,5.90
2023-04-02T13:21:32.459Z,2.95
2023-04-02T13:26:35.092Z,3.65
2023-04-02T13:31:40.360Z,3.22
2023-04-02T13:36:43.003Z,5.63
2023-04-02T13:41:52.364Z,3.33
2023-04-02T13:46:56.687Z,4.40
2023-04-02T13:52:05.233Z,11.23
2023-04-02T13:57:08.664Z,5.28
2023-04-02T14:02:21.009Z,5.85
2023-04-02T14:07:51.942Z,4.22
2023-04-02T14:12:59.097Z,4.28
2023-04-02T14:18:10.801Z,3.53
2023-04-02T14:23:44.487Z,2.58
2023-04-02T14:29:10.663Z,3.53
2023-04-02T14:34:27.470Z,3.47
2023-04-02T14:39:52.296Z,8.85
2023-04-02T14:45:05.244Z,7.57
2023-04-02T14:50:22.040Z,8.00
2023-04-02T14:55:36.399Z,6.88
2023-04-02T15:00:44.311Z,6.00
2023-04-02T15:05:56.376Z,8.23
2023-04-02T15:11:08.269Z,5.82
2023-04-02T15:16:21.447Z,8.82
2023-04-02T15:21:57.569Z,5.38
2023-04-02T15:27:39.496Z,9.52
2023-04-02T15:32:44.364Z,3.65
2023-04-02T15:38:17.117Z,4.68
2023-04-02T15:43:29.999Z,6.13
2023-04-02T15:48:58.672Z,8.57
2023-04-02T15:54:18.523Z,7.07
2023-04-02T16:00:12.159Z,4.82
2023-04-02T16:05:20.159Z,12.10
2023-04-02T16:10:40.874Z,5.30
2023-04-02T16:15:53.825Z,9.60
2023-04-02T16:21:03.951Z,8.60
2023-04-02T16:26:44.014Z,8.93
2023-04-02T16:32:31.863Z,9.55
2023-04-02T16:37:49.817Z,23.88
2023-04-02T16:43:06.675Z,21.73
2023-04-02T16:48:34.633Z,14.95
2023-04-02T16:53:39.927Z,17.23
2023-04-02T16:59:11.399Z,21.75
2023-04-02T17:04:26.562Z,17.52
2023-04-02T17:09:40.636Z,20.95
2023-04-02T17:14:58.540Z,17.65
2023-04-02T17:20:01.986Z,20.60
2023-04-02T17:25:07.944Z,16.25
2023-04-02T17:30:18.075Z,17.77
2023-04-02T17:35:30.165Z,24.00
2023-04-02T17:40:43.549Z,17.42
2023-04-02T17:45:52.103Z,22.40
2023-04-02T17:51:07.944Z,18.52
2023-04-02T17:56:24.675Z,24.95
2023-04-02T18:01:41.012Z,18.42
2023-04-02T18:06:51.351Z,33.28
2023-04-02T18:11:59.794Z,15.45
2023-04-02T18:17:27.540Z,7.07
2023-04-02T18:22:33.109Z,10.60
2023-04-02T18:27:47.936Z,8.45
2023-04-02T18:33:29.978Z,6.53
2023-04-02T18:38:49.386Z,6.55
2023-04-02T18:44:42.940Z,5.70
2023-04-02T18:49:57.664Z,7.03
2023-04-02T18:55:10.594Z,8.15
2023-04-02T19:00:34.089Z,12.65
2023-04-02T19:05:56.104Z,4.40
2023-04-02T19:11:06.580Z,7.55
2023-04-02T19:16:09.374Z,5.40
2023-04-02T19:21:44.358Z,2.13
2023-04-02T19:26:57.360Z,3.42
2023-04-02T19:32:12.045Z,6.22
2023-04-02T19:37:52.725Z,8.95
2023-04-02T19:42:56.186Z,3.97
2023-04-02T19:48:01.673Z,7.40
2023-04-02T19:53:04.577Z,7.60
2023-04-02T19:58:18.677Z,5.72
2023-04-02T20:03:22.590Z,8.40
2023-04-02T20:08:26.284Z,7.75
2023-04-02T20:13:29.658Z,8.85
2023-04-02T20:18:32.653Z,6.40
2023-04-02T20:23:36.193Z,9.15
2023-04-02T20:28:39.217Z,6.03
2023-04-02T20:33:42.328Z,9.93
2023-04-02T20:38:45.931Z,9.15
2023-04-02T20:43:50.128Z,10.88
2023-04-02T20:48:53.180Z,8.15
2023-04-02T20:53:56.512Z,8.15
2023-04-02T20:58:59.340Z,10.82
2023-04-02T21:04:04.680Z,9.05
2023-04-02T21:09:15.166Z,10.13
2023-04-02T21:14:18.362Z,7.78
2023-04-02T21:19:21.178Z,7.95
2023-04-02T21:24:24.066Z,13.20
2023-04-02T21:29:26.956Z,11.95
2023-04-02T21:34:29.591Z,6.10
2023-04-02T21:39:33.956Z,6.45
2023-04-02T21:44:36.590Z,8.63
2023-04-02T21:49:39.053Z,6.57
2023-04-02T21:54:41.586Z,6.47
2023-04-02T21:59:44.217Z,6.28
2023-04-02T22:04:46.877Z,10.02
2023-04-02T22:09:49.810Z,10.98
2023-04-02T22:14:52.674Z,8.07
2023-04-02T22:19:55.852Z,6.60
2023-04-02T22:25:00.529Z,8.10
2023-04-02T22:30:03.497Z,8.13
2023-04-02T22:35:06.752Z,7.13
2023-04-02T22:40:09.968Z,11.85
2023-04-02T22:45:13.293Z,9.43
2023-04-02T22:50:17.469Z,14.63
2023-04-02T22:55:20.395Z,12.52
2023-04-02T23:00:24.371Z,16.25
2023-04-02T23:05:27.223Z,13.00
2023-04-02T23:10:30.825Z,16.15
2023-04-02T23:15:34.167Z,11.95
2023-04-02T23:20:37.527Z,13.43
2023-04-02T23:25:41.550Z,11.95
2023-04-02T23:30:44.983Z,10.10
2023-04-02T23:35:48.057Z,10.18
2023-04-02T23:40:50.655Z,12.65
2023-04-02T23:45:53.391Z,8.93
2023-04-02T23:50:56.457Z,7.85
2023-04-02T23:55:59.297Z,11.82
